Pleasantville, Ohio
Current Conditions -  °F | °C
As of 9:53 PM on Friday 19 Dec 2014 (Local Time) from KLHQ Reporting Station
Overcast Overcast  
Wind Chill: 39°   Ceiling: 1700
Heat Index: 43°   Visibility: 9mi
Dew Point: 23°   Wind: 6mph
Humidity: 45%   Direction: 100°E
Pressure: 30.29"   Gusts: NA
Location:  39.81°N, 82.52°W
Report Text: KLHQ 200253Z AUTO 10005KT 9SM OVC017 06/M05 A3029 RMK AO2 SLP264 T00611050 55008
Loading
Personal Weather Stations






























Interactive Weather Map New forecast layout! Learn more

10-Day Weather Forecast

Advertisements
Track Severe Weather on mobile